sensor_id;sensor_type;location;lat;lon;timestamp;pressure;altitude;pressure_sealevel;temperature;humidity
13209;BME280;6669;42.678;23.332;2023-04-19T00:01:30;94140.53;;;9.83;100.00
13209;BME280;6669;42.678;23.332;2023-04-19T00:03:59;94143.03;;;10.06;100.00
13209;BME280;6669;42.678;23.332;2023-04-19T00:06:27;94134.88;;;9.94;100.00
13209;BME280;6669;42.678;23.332;2023-04-19T00:08:57;94144.09;;;9.97;100.00
13209;BME280;6669;42.678;23.332;2023-04-19T00:11:25;94132.56;;;10.00;100.00
13209;BME280;6669;42.678;23.332;2023-04-19T00:13:53;94139.06;;;10.10;100.00
13209;BME280;6669;42.678;23.332;2023-04-19T00:16:21;94137.47;;;10.09;100.00
13209;BME280;6669;42.678;23.332;2023-04-19T00:18:49;94132.44;;;10.08;100.00
13209;BME280;6669;42.678;23.332;2023-04-19T00:21:17;94137.28;;;10.11;100.00
13209;BME280;6669;42.678;23.332;2023-04-19T00:23:45;94135.69;;;10.10;100.00
13209;BME280;6669;42.678;23.332;2023-04-19T00:26:14;94128.25;;;10.07;100.00
13209;BME280;6669;42.678;23.332;2023-04-19T00:28:42;94124.84;;;10.06;100.00
13209;BME280;6669;42.678;23.332;2023-04-19T00:31:10;94130.66;;;10.08;100.00
13209;BME280;6669;42.678;23.332;2023-04-19T00:33:38;94111.00;;;9.99;100.00
13209;BME280;6669;42.678;23.332;2023-04-19T00:36:07;94132.56;;;10.14;100.00
13209;BME280;6669;42.678;23.332;2023-04-19T00:38:36;94127.50;;;10.13;100.00
13209;BME280;6669;42.678;23.332;2023-04-19T00:41:04;94119.75;;;9.98;100.00
13209;BME280;6669;42.678;23.332;2023-04-19T00:43:33;94123.50;;;10.10;100.00
13209;BME280;6669;42.678;23.332;2023-04-19T00:46:02;94105.59;;;10.01;100.00
13209;BME280;6669;42.678;23.332;2023-04-19T00:48:30;94123.88;;;10.07;100.00
13209;BME280;6669;42.678;23.332;2023-04-19T00:50:58;94126.00;;;9.89;100.00
13209;BME280;6669;42.678;23.332;2023-04-19T00:53:26;94123.16;;;9.84;100.00
13209;BME280;6669;42.678;23.332;2023-04-19T00:55:56;94116.63;;;9.58;100.00
13209;BME280;6669;42.678;23.332;2023-04-19T00:58:25;94123.41;;;9.44;100.00
13209;BME280;6669;42.678;23.332;2023-04-19T01:00:56;94119.56;;;9.40;100.00
13209;BME280;6669;42.678;23.332;2023-04-19T01:03:25;94118.47;;;9.34;100.00
13209;BME280;6669;42.678;23.332;2023-04-19T01:05:55;94109.50;;;9.22;100.00
13209;BME280;6669;42.678;23.332;2023-04-19T01:08:23;94111.94;;;9.23;100.00
13209;BME280;6669;42.678;23.332;2023-04-19T01:10:51;94104.22;;;9.15;100.00
13209;BME280;6669;42.678;23.332;2023-04-19T01:13:19;94106.88;;;9.07;100.00
13209;BME280;6669;42.678;23.332;2023-04-19T01:15:47;94086.38;;;8.97;100.00
13209;BME280;6669;42.678;23.332;2023-04-19T01:18:18;94103.09;;;8.94;100.00
13209;BME280;6669;42.678;23.332;2023-04-19T01:20:47;94109.66;;;9.05;100.00
13209;BME280;6669;42.678;23.332;2023-04-19T01:23:16;94105.91;;;9.08;100.00
13209;BME280;6669;42.678;23.332;2023-04-19T01:25:44;94108.97;;;9.11;100.00
13209;BME280;6669;42.678;23.332;2023-04-19T01:28:13;94109.56;;;9.13;100.00
13209;BME280;6669;42.678;23.332;2023-04-19T01:30:41;94113.13;;;9.12;100.00
13209;BME280;6669;42.678;23.332;2023-04-19T01:33:09;94083.72;;;9.05;100.00
13209;BME280;6669;42.678;23.332;2023-04-19T01:35:37;94111.88;;;9.08;100.00
13209;BME280;6669;42.678;23.332;2023-04-19T01:38:05;94108.72;;;8.98;100.00
13209;BME280;6669;42.678;23.332;2023-04-19T01:40:34;94099.88;;;8.92;100.00
13209;BME280;6669;42.678;23.332;2023-04-19T01:43:02;94090.13;;;8.94;100.00
13209;BME280;6669;42.678;23.332;2023-04-19T01:45:30;94060.13;;;8.77;100.00
13209;BME280;6669;42.678;23.332;2023-04-19T01:47:59;94075.53;;;8.78;100.00
13209;BME280;6669;42.678;23.332;2023-04-19T01:50:28;94099.53;;;8.95;100.00
13209;BME280;6669;42.678;23.332;2023-04-19T01:52:57;94102.53;;;8.84;100.00
13209;BME280;6669;42.678;23.332;2023-04-19T01:55:25;94050.94;;;8.51;100.00
13209;BME280;6669;42.678;23.332;2023-04-19T01:57:54;94097.53;;;8.82;100.00
13209;BME280;6669;42.678;23.332;2023-04-19T02:00:22;94099.81;;;8.77;100.00
13209;BME280;6669;42.678;23.332;2023-04-19T02:02:50;94088.34;;;8.72;100.00
13209;BME280;6669;42.678;23.332;2023-04-19T02:05:19;94082.50;;;8.55;100.00
13209;BME280;6669;42.678;23.332;2023-04-19T02:07:47;94086.59;;;8.49;100.00
13209;BME280;6669;42.678;23.332;2023-04-19T02:10:15;94101.13;;;8.50;100.00
13209;BME280;6669;42.678;23.332;2023-04-19T02:12:43;94094.44;;;8.32;100.00
13209;BME280;6669;42.678;23.332;2023-04-19T02:15:12;94088.72;;;8.37;100.00
13209;BME280;6669;42.678;23.332;2023-04-19T02:17:40;94089.13;;;8.26;100.00
13209;BME280;6669;42.678;23.332;2023-04-19T02:20:09;94096.59;;;8.21;100.00
13209;BME280;6669;42.678;23.332;2023-04-19T02:22:37;94069.19;;;8.03;100.00
13209;BME280;6669;42.678;23.332;2023-04-19T02:25:05;94090.94;;;8.17;100.00
13209;BME280;6669;42.678;23.332;2023-04-19T02:27:34;94085.03;;;8.08;100.00
13209;BME280;6669;42.678;23.332;2023-04-19T02:30:02;94085.47;;;8.12;100.00
13209;BME280;6669;42.678;23.332;2023-04-19T02:32:31;94076.41;;;8.16;100.00
13209;BME280;6669;42.678;23.332;2023-04-19T02:34:59;94087.38;;;8.18;100.00
13209;BME280;6669;42.678;23.332;2023-04-19T02:37:27;94086.59;;;8.09;100.00
13209;BME280;6669;42.678;23.332;2023-04-19T02:39:55;94086.78;;;8.08;100.00
13209;BME280;6669;42.678;23.332;2023-04-19T02:42:23;94083.72;;;8.04;100.00
13209;BME280;6669;42.678;23.332;2023-04-19T02:44:52;94086.00;;;8.07;100.00
13209;BME280;6669;42.678;23.332;2023-04-19T02:47:20;94083.06;;;8.10;100.00
13209;BME280;6669;42.678;23.332;2023-04-19T02:49:49;94082.03;;;8.19;100.00
13209;BME280;6669;42.678;23.332;2023-04-19T02:52:17;94091.88;;;8.24;100.00
13209;BME280;6669;42.678;23.332;2023-04-19T02:54:45;94082.19;;;8.18;100.00
13209;BME280;6669;42.678;23.332;2023-04-19T02:57:13;94080.06;;;8.30;100.00
13209;BME280;6669;42.678;23.332;2023-04-19T02:59:41;94064.03;;;8.26;100.00
13209;BME280;6669;42.678;23.332;2023-04-19T03:02:09;94075.84;;;8.29;100.00
13209;BME280;6669;42.678;23.332;2023-04-19T03:04:37;94084.88;;;8.33;100.00
13209;BME280;6669;42.678;23.332;2023-04-19T03:07:07;94085.38;;;8.28;100.00
13209;BME280;6669;42.678;23.332;2023-04-19T03:09:35;94079.69;;;8.33;100.00
13209;BME280;6669;42.678;23.332;2023-04-19T03:12:06;94077.84;;;8.18;100.00
13209;BME280;6669;42.678;23.332;2023-04-19T03:14:34;94077.56;;;8.13;100.00
13209;BME280;6669;42.678;23.332;2023-04-19T03:17:02;94079.03;;;8.08;100.00
13209;BME280;6669;42.678;23.332;2023-04-19T03:19:30;94082.75;;;8.05;100.00
13209;BME280;6669;42.678;23.332;2023-04-19T03:21:58;94064.22;;;7.93;100.00
13209;BME280;6669;42.678;23.332;2023-04-19T03:24:28;94076.31;;;8.01;100.00
13209;BME280;6669;42.678;23.332;2023-04-19T03:26:56;94078.44;;;7.97;100.00
13209;BME280;6669;42.678;23.332;2023-04-19T03:29:24;94077.34;;;7.92;100.00
13209;BME280;6669;42.678;23.332;2023-04-19T03:31:52;94079.63;;;7.87;100.00
13209;BME280;6669;42.678;23.332;2023-04-19T03:34:20;94078.97;;;7.84;100.00
13209;BME280;6669;42.678;23.332;2023-04-19T03:36:48;94077.22;;;7.77;100.00
13209;BME280;6669;42.678;23.332;2023-04-19T03:39:16;94071.56;;;7.73;100.00
13209;BME280;6669;42.678;23.332;2023-04-19T03:41:45;94075.13;;;7.80;100.00
13209;BME280;6669;42.678;23.332;2023-04-19T03:44:13;94084.34;;;7.75;100.00
13209;BME280;6669;42.678;23.332;2023-04-19T03:46:42;94087.75;;;7.75;100.00
13209;BME280;6669;42.678;23.332;2023-04-19T03:49:12;94075.72;;;7.82;100.00
13209;BME280;6669;42.678;23.332;2023-04-19T03:51:40;94077.34;;;7.83;100.00
13209;BME280;6669;42.678;23.332;2023-04-19T03:54:08;94074.59;;;7.85;100.00
13209;BME280;6669;42.678;23.332;2023-04-19T03:56:37;94062.84;;;7.74;100.00
13209;BME280;6669;42.678;23.332;2023-04-19T03:59:06;94078.84;;;7.78;100.00
13209;BME280;6669;42.678;23.332;2023-04-19T04:01:34;94079.28;;;7.81;100.00
13209;BME280;6669;42.678;23.332;2023-04-19T04:04:07;94067.69;;;7.77;100.00
13209;BME280;6669;42.678;23.332;2023-04-19T04:06:36;94074.28;;;7.80;100.00
13209;BME280;6669;42.678;23.332;2023-04-19T04:09:04;94072.06;;;7.68;100.00
13209;BME280;6669;42.678;23.332;2023-04-19T04:11:32;94073.06;;;7.67;100.00
13209;BME280;6669;42.678;23.332;2023-04-19T04:14:00;94075.84;;;7.58;100.00
13209;BME280;6669;42.678;23.332;2023-04-19T04:16:29;94078.72;;;7.63;100.00
13209;BME280;6669;42.678;23.332;2023-04-19T04:18:57;94089.69;;;7.73;100.00
13209;BME280;6669;42.678;23.332;2023-04-19T04:21:25;94095.22;;;7.70;100.00
13209;BME280;6669;42.678;23.332;2023-04-19T04:23:53;94092.16;;;7.66;100.00
13209;BME280;6669;42.678;23.332;2023-04-19T04:26:21;94089.25;;;7.61;100.00
13209;BME280;6669;42.678;23.332;2023-04-19T04:28:50;94096.19;;;7.61;100.00
13209;BME280;6669;42.678;23.332;2023-04-19T04:31:19;94100.56;;;7.60;100.00
13209;BME280;6669;42.678;23.332;2023-04-19T04:33:48;94095.25;;;7.53;100.00
13209;BME280;6669;42.678;23.332;2023-04-19T04:36:16;94098.16;;;7.59;100.00
13209;BME280;6669;42.678;23.332;2023-04-19T04:38:44;94092.16;;;7.58;100.00
13209;BME280;6669;42.678;23.332;2023-04-19T04:41:12;94095.56;;;7.59;100.00
13209;BME280;6669;42.678;23.332;2023-04-19T04:43:42;94092.50;;;7.55;100.00
13209;BME280;6669;42.678;23.332;2023-04-19T04:46:11;94097.50;;;7.65;100.00
13209;BME280;6669;42.678;23.332;2023-04-19T04:48:39;94097.94;;;7.68;100.00
13209;BME280;6669;42.678;23.332;2023-04-19T04:51:08;94094.38;;;7.69;100.00
13209;BME280;6669;42.678;23.332;2023-04-19T04:53:36;94088.13;;;7.64;100.00
13209;BME280;6669;42.678;23.332;2023-04-19T04:56:04;94093.59;;;7.69;100.00
13209;BME280;6669;42.678;23.332;2023-04-19T04:58:32;94097.50;;;7.65;100.00
13209;BME280;6669;42.678;23.332;2023-04-19T05:01:00;94095.22;;;7.70;100.00
13209;BME280;6669;42.678;23.332;2023-04-19T05:03:29;94091.47;;;7.73;100.00
13209;BME280;6669;42.678;23.332;2023-04-19T05:05:57;94080.97;;;7.66;100.00
13209;BME280;6669;42.678;23.332;2023-04-19T05:08:27;94088.41;;;7.69;100.00
13209;BME280;6669;42.678;23.332;2023-04-19T05:10:55;94074.56;;;7.53;100.00
13209;BME280;6669;42.678;23.332;2023-04-19T05:13:23;94091.50;;;7.64;100.00
13209;BME280;6669;42.678;23.332;2023-04-19T05:15:51;94100.22;;;7.72;100.00
13209;BME280;6669;42.678;23.332;2023-04-19T05:18:20;94081.97;;;7.65;100.00
13209;BME280;6669;42.678;23.332;2023-04-19T05:20:49;94117.13;;;7.82;100.00
13209;BME280;6669;42.678;23.332;2023-04-19T05:23:17;94081.31;;;7.63;100.00
13209;BME280;6669;42.678;23.332;2023-04-19T05:25:47;94101.19;;;7.71;100.00
13209;BME280;6669;42.678;23.332;2023-04-19T05:28:15;94094.19;;;7.79;100.00
13209;BME280;6669;42.678;23.332;2023-04-19T05:30:43;94110.31;;;7.90;100.00
13209;BME280;6669;42.678;23.332;2023-04-19T05:33:11;94111.34;;;7.80;100.00
13209;BME280;6669;42.678;23.332;2023-04-19T05:35:39;94105.84;;;7.75;100.00
13209;BME280;6669;42.678;23.332;2023-04-19T05:38:08;94105.25;;;7.65;100.00
13209;BME280;6669;42.678;23.332;2023-04-19T05:40:36;94108.28;;;7.77;100.00
13209;BME280;6669;42.678;23.332;2023-04-19T05:43:07;94089.88;;;7.63;100.00
13209;BME280;6669;42.678;23.332;2023-04-19T05:45:35;94113.28;;;7.78;100.00
13209;BME280;6669;42.678;23.332;2023-04-19T05:48:04;94115.06;;;7.78;100.00
13209;BME280;6669;42.678;23.332;2023-04-19T05:50:32;94107.78;;;7.73;100.00
13209;BME280;6669;42.678;23.332;2023-04-19T05:53:00;94110.09;;;7.60;100.00
13209;BME280;6669;42.678;23.332;2023-04-19T05:55:28;94114.59;;;7.74;100.00
13209;BME280;6669;42.678;23.332;2023-04-19T05:57:57;94113.63;;;7.75;100.00
13209;BME280;6669;42.678;23.332;2023-04-19T06:00:26;94108.38;;;7.92;100.00
13209;BME280;6669;42.678;23.332;2023-04-19T06:02:54;94103.84;;;7.94;100.00
13209;BME280;6669;42.678;23.332;2023-04-19T06:05:23;94113.34;;;8.01;100.00
13209;BME280;6669;42.678;23.332;2023-04-19T06:07:51;94117.19;;;8.14;100.00
13209;BME280;6669;42.678;23.332;2023-04-19T06:10:25;94123.00;;;8.16;100.00
13209;BME280;6669;42.678;23.332;2023-04-19T06:13:13;94111.06;;;8.07;100.00
13209;BME280;6669;42.678;23.332;2023-04-19T06:15:42;94119.88;;;8.21;100.00
13209;BME280;6669;42.678;23.332;2023-04-19T06:18:10;94096.81;;;8.11;100.00
13209;BME280;6669;42.678;23.332;2023-04-19T06:20:45;94115.91;;;8.41;100.00
13209;BME280;6669;42.678;23.332;2023-04-19T06:23:14;94121.84;;;8.50;100.00
13209;BME280;6669;42.678;23.332;2023-04-19T06:25:44;94116.84;;;8.48;100.00
13209;BME280;6669;42.678;23.332;2023-04-19T06:28:14;94114.56;;;8.54;100.00
13209;BME280;6669;42.678;23.332;2023-04-19T06:30:43;94103.28;;;8.46;100.00
13209;BME280;6669;42.678;23.332;2023-04-19T06:33:11;94112.13;;;8.75;100.00
13209;BME280;6669;42.678;23.332;2023-04-19T06:35:39;94116.91;;;8.87;100.00
13209;BME280;6669;42.678;23.332;2023-04-19T06:38:07;94120.16;;;8.89;100.00
13209;BME280;6669;42.678;23.332;2023-04-19T06:40:36;94113.59;;;9.01;100.00
13209;BME280;6669;42.678;23.332;2023-04-19T06:43:04;94123.69;;;9.11;100.00
13209;BME280;6669;42.678;23.332;2023-04-19T06:45:32;94112.94;;;8.99;100.00
13209;BME280;6669;42.678;23.332;2023-04-19T06:48:01;94128.50;;;8.99;100.00
13209;BME280;6669;42.678;23.332;2023-04-19T06:50:29;94130.84;;;9.09;100.00
13209;BME280;6669;42.678;23.332;2023-04-19T06:52:57;94119.16;;;9.13;100.00
13209;BME280;6669;42.678;23.332;2023-04-19T06:55:25;94130.28;;;9.37;100.00
13209;BME280;6669;42.678;23.332;2023-04-19T06:57:53;94123.66;;;9.34;100.00
13209;BME280;6669;42.678;23.332;2023-04-19T07:00:23;94134.50;;;9.53;100.00
13209;BME280;6669;42.678;23.332;2023-04-19T07:02:52;94139.34;;;9.71;100.00
13209;BME280;6669;42.678;23.332;2023-04-19T07:05:21;94146.44;;;9.92;100.00
13209;BME280;6669;42.678;23.332;2023-04-19T07:07:49;94141.16;;;9.85;100.00
13209;BME280;6669;42.678;23.332;2023-04-19T07:10:17;94145.72;;;9.68;100.00
13209;BME280;6669;42.678;23.332;2023-04-19T07:12:45;94149.84;;;9.62;100.00
13209;BME280;6669;42.678;23.332;2023-04-19T07:15:13;94152.16;;;9.57;100.00
13209;BME280;6669;42.678;23.332;2023-04-19T07:17:41;94137.72;;;9.40;100.00
13209;BME280;6669;42.678;23.332;2023-04-19T07:20:10;94123.38;;;9.29;100.00
13209;BME280;6669;42.678;23.332;2023-04-19T07:22:39;94142.47;;;9.51;100.00
13209;BME280;6669;42.678;23.332;2023-04-19T07:25:08;94148.22;;;9.76;100.00
13209;BME280;6669;42.678;23.332;2023-04-19T07:27:36;94138.16;;;9.58;100.00
13209;BME280;6669;42.678;23.332;2023-04-19T07:30:05;94131.47;;;9.64;100.00
13209;BME280;6669;42.678;23.332;2023-04-19T07:32:34;94142.22;;;9.61;100.00
13209;BME280;6669;42.678;23.332;2023-04-19T07:35:03;94146.56;;;9.45;100.00
13209;BME280;6669;42.678;23.332;2023-04-19T07:37:31;94158.00;;;9.36;100.00
13209;BME280;6669;42.678;23.332;2023-04-19T07:40:00;94143.69;;;9.25;100.00
13209;BME280;6669;42.678;23.332;2023-04-19T07:42:29;94146.09;;;9.27;100.00
13209;BME280;6669;42.678;23.332;2023-04-19T07:44:57;94147.25;;;9.24;100.00
13209;BME280;6669;42.678;23.332;2023-04-19T07:47:25;94149.59;;;9.34;100.00
13209;BME280;6669;42.678;23.332;2023-04-19T07:49:54;94141.75;;;9.42;100.00
13209;BME280;6669;42.678;23.332;2023-04-19T07:52:22;94139.94;;;9.43;100.00
13209;BME280;6669;42.678;23.332;2023-04-19T07:54:50;94138.56;;;9.70;100.00
13209;BME280;6669;42.678;23.332;2023-04-19T07:57:20;94150.13;;;9.82;100.00
13209;BME280;6669;42.678;23.332;2023-04-19T07:59:47;94142.34;;;9.82;100.00
13209;BME280;6669;42.678;23.332;2023-04-19T08:02:16;94145.38;;;9.71;100.00
13209;BME280;6669;42.678;23.332;2023-04-19T08:04:45;94155.00;;;9.77;100.00
13209;BME280;6669;42.678;23.332;2023-04-19T08:07:15;94147.78;;;9.88;100.00
13209;BME280;6669;42.678;23.332;2023-04-19T08:09:43;94140.91;;;9.80;100.00
13209;BME280;6669;42.678;23.332;2023-04-19T08:12:11;94141.25;;;9.77;100.00
13209;BME280;6669;42.678;23.332;2023-04-19T08:15:00;94139.09;;;9.95;100.00
13209;BME280;6669;42.678;23.332;2023-04-19T08:17:48;94141.06;;;9.93;100.00
13209;BME280;6669;42.678;23.332;2023-04-19T08:20:16;94155.19;;;9.91;100.00
13209;BME280;6669;42.678;23.332;2023-04-19T08:22:45;94150.13;;;9.82;100.00
13209;BME280;6669;42.678;23.332;2023-04-19T08:25:13;94141.06;;;9.78;100.00
13209;BME280;6669;42.678;23.332;2023-04-19T08:27:42;94152.16;;;9.87;100.00
13209;BME280;6669;42.678;23.332;2023-04-19T08:30:12;94143.91;;;9.98;100.00
13209;BME280;6669;42.678;23.332;2023-04-19T08:32:40;94147.03;;;9.94;100.00
13209;BME280;6669;42.678;23.332;2023-04-19T08:35:09;94134.50;;;10.12;100.00
13209;BME280;6669;42.678;23.332;2023-04-19T08:37:37;94150.81;;;10.36;100.00
13209;BME280;6669;42.678;23.332;2023-04-19T08:40:06;94139.84;;;10.41;100.00
13209;BME280;6669;42.678;23.332;2023-04-19T08:42:34;94139.88;;;10.26;100.00
13209;BME280;6669;42.678;23.332;2023-04-19T08:45:04;94140.13;;;10.31;100.00
13209;BME280;6669;42.678;23.332;2023-04-19T08:47:38;94136.72;;;10.45;100.00
13209;BME280;6669;42.678;23.332;2023-04-19T08:50:26;94129.63;;;10.54;100.00
13209;BME280;6669;42.678;23.332;2023-04-19T08:53:07;94130.56;;;10.68;100.00
13209;BME280;6669;42.678;23.332;2023-04-19T08:55:40;94132.28;;;10.61;100.00
13209;BME280;6669;42.678;23.332;2023-04-19T08:58:30;94128.94;;;10.45;100.00
13209;BME280;6669;42.678;23.332;2023-04-19T09:01:03;94121.69;;;10.26;100.00
13209;BME280;6669;42.678;23.332;2023-04-19T09:03:33;94132.88;;;10.26;100.00
13209;BME280;6669;42.678;23.332;2023-04-19T09:06:17;94125.16;;;10.48;100.00
13209;BME280;6669;42.678;23.332;2023-04-19T09:08:45;94132.88;;;11.00;100.00
13209;BME280;6669;42.678;23.332;2023-04-19T09:11:13;94124.19;;;11.14;100.00
13209;BME280;6669;42.678;23.332;2023-04-19T09:13:41;94121.03;;;11.19;100.00
13209;BME280;6669;42.678;23.332;2023-04-19T09:16:22;94110.66;;;10.97;100.00
13209;BME280;6669;42.678;23.332;2023-04-19T09:18:56;94119.09;;;11.06;100.00
13209;BME280;6669;42.678;23.332;2023-04-19T09:21:45;94110.91;;;11.02;100.00
13209;BME280;6669;42.678;23.332;2023-04-19T09:24:17;94113.09;;;11.27;100.00
13209;BME280;6669;42.678;23.332;2023-04-19T09:26:53;94110.63;;;11.47;100.00
13209;BME280;6669;42.678;23.332;2023-04-19T09:29:24;94105.94;;;11.71;100.00
13209;BME280;6669;42.678;23.332;2023-04-19T09:31:57;94111.69;;;11.88;100.00
13209;BME280;6669;42.678;23.332;2023-04-19T09:34:28;94128.53;;;11.92;100.00
13209;BME280;6669;42.678;23.332;2023-04-19T09:36:56;94119.13;;;12.33;100.00
13209;BME280;6669;42.678;23.332;2023-04-19T09:39:38;94121.78;;;12.53;100.00
13209;BME280;6669;42.678;23.332;2023-04-19T09:42:06;94130.16;;;12.41;100.00
13209;BME280;6669;42.678;23.332;2023-04-19T09:44:35;94117.59;;;12.03;100.00
13209;BME280;6669;42.678;23.332;2023-04-19T09:47:21;94115.22;;;12.08;100.00
13209;BME280;6669;42.678;23.332;2023-04-19T09:50:05;94108.06;;;12.24;100.00
13209;BME280;6669;42.678;23.332;2023-04-19T09:52:49;94112.50;;;12.30;100.00
13209;BME280;6669;42.678;23.332;2023-04-19T09:55:18;94111.84;;;12.15;100.00
13209;BME280;6669;42.678;23.332;2023-04-19T09:57:53;94095.63;;;12.26;100.00
13209;BME280;6669;42.678;23.332;2023-04-19T10:00:22;94100.09;;;12.39;100.00
13209;BME280;6669;42.678;23.332;2023-04-19T10:02:51;94086.69;;;12.49;100.00
13209;BME280;6669;42.678;23.332;2023-04-19T10:05:26;94090.91;;;12.56;100.00
13209;BME280;6669;42.678;23.332;2023-04-19T10:07:55;94088.53;;;12.75;100.00
13209;BME280;6669;42.678;23.332;2023-04-19T10:10:26;94089.13;;;12.64;100.00
13209;BME280;6669;42.678;23.332;2023-04-19T10:13:01;94089.09;;;12.50;100.00
13209;BME280;6669;42.678;23.332;2023-04-19T10:15:44;94086.66;;;12.42;100.00
13209;BME280;6669;42.678;23.332;2023-04-19T10:18:21;94085.09;;;12.48;100.00
13209;BME280;6669;42.678;23.332;2023-04-19T10:20:54;94090.47;;;12.39;100.00
13209;BME280;6669;42.678;23.332;2023-04-19T10:23:26;94082.47;;;12.54;100.00
13209;BME280;6669;42.678;23.332;2023-04-19T10:25:56;94090.72;;;12.58;100.00
13209;BME280;6669;42.678;23.332;2023-04-19T10:28:27;94074.53;;;12.96;100.00
13209;BME280;6669;42.678;23.332;2023-04-19T10:30:58;94073.69;;;13.36;100.00
13209;BME280;6669;42.678;23.332;2023-04-19T10:33:29;94072.84;;;13.89;100.00
13209;BME280;6669;42.678;23.332;2023-04-19T10:35:59;94068.03;;;13.79;100.00
13209;BME280;6669;42.678;23.332;2023-04-19T10:38:35;94075.81;;;14.45;100.00
13209;BME280;6669;42.678;23.332;2023-04-19T10:41:05;94071.59;;;14.44;100.00
13209;BME280;6669;42.678;23.332;2023-04-19T10:43:44;94070.13;;;14.54;100.00
13209;BME280;6669;42.678;23.332;2023-04-19T10:46:14;94060.53;;;14.48;100.00
13209;BME280;6669;42.678;23.332;2023-04-19T10:48:51;94055.19;;;14.68;100.00
13209;BME280;6669;42.678;23.332;2023-04-19T10:51:22;94042.72;;;14.70;100.00
13209;BME280;6669;42.678;23.332;2023-04-19T10:53:53;94072.84;;;15.30;100.00
13209;BME280;6669;42.678;23.332;2023-04-19T10:59:39;94052.84;;;14.53;100.00
13209;BME280;6669;42.678;23.332;2023-04-19T11:02:27;94041.06;;;15.01;100.00
13209;BME280;6669;42.678;23.332;2023-04-19T11:04:59;94038.38;;;15.33;100.00
13209;BME280;6669;42.678;23.332;2023-04-19T11:07:27;94049.53;;;15.47;100.00
13209;BME280;6669;42.678;23.332;2023-04-19T11:10:03;94048.97;;;15.45;100.00
13209;BME280;6669;42.678;23.332;2023-04-19T11:12:32;94046.59;;;15.81;100.00
13209;BME280;6669;42.678;23.332;2023-04-19T11:15:04;94036.47;;;16.22;100.00
13209;BME280;6669;42.678;23.332;2023-04-19T11:17:34;94031.91;;;16.29;96.00
13209;BME280;6669;42.678;23.332;2023-04-19T11:20:06;94052.09;;;16.28;93.79
13209;BME280;6669;42.678;23.332;2023-04-19T11:22:36;94055.50;;;15.11;100.00
13209;BME280;6669;42.678;23.332;2023-04-19T11:25:09;94053.47;;;15.13;100.00
13209;BME280;6669;42.678;23.332;2023-04-19T11:27:38;94044.16;;;15.79;100.00
13209;BME280;6669;42.678;23.332;2023-04-19T11:30:09;94034.50;;;16.47;93.64
13209;BME280;6669;42.678;23.332;2023-04-19T11:32:43;94046.69;;;16.11;87.03
13209;BME280;6669;42.678;23.332;2023-04-19T11:35:11;94046.16;;;15.84;91.81
13209;BME280;6669;42.678;23.332;2023-04-19T11:37:40;94039.69;;;15.87;89.69
13209;BME280;6669;42.678;23.332;2023-04-19T11:40:08;94017.94;;;15.86;87.63
13209;BME280;6669;42.678;23.332;2023-04-19T11:42:36;94041.53;;;15.86;88.37
13209;BME280;6669;42.678;23.332;2023-04-19T11:45:05;94047.81;;;15.78;85.65
13209;BME280;6669;42.678;23.332;2023-04-19T11:47:53;94026.72;;;16.10;84.48
13209;BME280;6669;42.678;23.332;2023-04-19T11:50:34;94037.16;;;16.59;80.97
13209;BME280;6669;42.678;23.332;2023-04-19T11:53:11;94010.19;;;16.82;81.90
13209;BME280;6669;42.678;23.332;2023-04-19T11:55:41;94026.91;;;17.59;77.43
13209;BME280;6669;42.678;23.332;2023-04-19T11:58:25;94010.47;;;17.64;72.38
13209;BME280;6669;42.678;23.332;2023-04-19T12:00:55;94000.50;;;18.19;72.50
13209;BME280;6669;42.678;23.332;2023-04-19T12:03:27;94016.44;;;18.12;73.43
13209;BME280;6669;42.678;23.332;2023-04-19T12:05:56;94004.06;;;17.72;73.18
13209;BME280;6669;42.678;23.332;2023-04-19T12:08:32;94016.19;;;17.49;71.86
13209;BME280;6669;42.678;23.332;2023-04-19T12:11:02;94017.50;;;17.75;69.14
13209;BME280;6669;42.678;23.332;2023-04-19T12:13:31;94012.19;;;17.35;67.94
13209;BME280;6669;42.678;23.332;2023-04-19T12:15:59;94002.94;;;17.56;69.06
13209;BME280;6669;42.678;23.332;2023-04-19T12:18:41;94001.47;;;18.01;69.70
13209;BME280;6669;42.678;23.332;2023-04-19T12:21:11;93993.63;;;18.29;67.72
13209;BME280;6669;42.678;23.332;2023-04-19T12:23:39;93995.47;;;18.29;68.58
13209;BME280;6669;42.678;23.332;2023-04-19T12:26:07;94009.72;;;19.08;66.37
13209;BME280;6669;42.678;23.332;2023-04-19T12:28:35;93994.38;;;18.42;65.77
13209;BME280;6669;42.678;23.332;2023-04-19T12:31:03;93990.38;;;18.39;67.44
13209;BME280;6669;42.678;23.332;2023-04-19T12:33:33;93979.13;;;18.90;69.38
13209;BME280;6669;42.678;23.332;2023-04-19T12:36:01;93998.72;;;19.50;68.69
13209;BME280;6669;42.678;23.332;2023-04-19T12:38:29;93991.75;;;20.28;68.05
13209;BME280;6669;42.678;23.332;2023-04-19T12:40:57;93965.53;;;19.93;64.49
13209;BME280;6669;42.678;23.332;2023-04-19T12:43:25;93999.31;;;19.01;68.18
13209;BME280;6669;42.678;23.332;2023-04-19T12:45:58;94003.97;;;18.82;69.23
13209;BME280;6669;42.678;23.332;2023-04-19T12:48:27;93989.47;;;17.16;75.88
13209;BME280;6669;42.678;23.332;2023-04-19T12:50:56;94005.81;;;16.64;81.02
13209;BME280;6669;42.678;23.332;2023-04-19T12:53:24;93991.16;;;17.58;82.24
13209;BME280;6669;42.678;23.332;2023-04-19T12:55:52;93976.47;;;18.27;75.27
13209;BME280;6669;42.678;23.332;2023-04-19T12:58:20;93988.34;;;18.01;75.97
13209;BME280;6669;42.678;23.332;2023-04-19T13:00:48;93993.63;;;16.70;80.84
13209;BME280;6669;42.678;23.332;2023-04-19T13:03:16;94004.13;;;15.53;94.38
13209;BME280;6669;42.678;23.332;2023-04-19T13:05:45;94005.16;;;15.34;100.00
13209;BME280;6669;42.678;23.332;2023-04-19T13:08:14;94016.19;;;15.17;100.00
13209;BME280;6669;42.678;23.332;2023-04-19T13:10:42;94027.22;;;15.19;100.00
13209;BME280;6669;42.678;23.332;2023-04-19T13:13:10;94024.81;;;14.93;100.00
13209;BME280;6669;42.678;23.332;2023-04-19T13:15:38;94028.41;;;14.73;100.00